createdAt,value
2022-10-13T00:00:15.426Z,6.00
2022-10-13T00:00:47.109Z,7.00
2022-10-13T00:01:20.094Z,4.57
2022-10-13T00:01:51.425Z,4.82
2022-10-13T00:02:22.780Z,4.32
2022-10-13T00:02:54.122Z,7.33
2022-10-13T00:03:25.821Z,6.70
2022-10-13T00:03:57.200Z,7.25
2022-10-13T00:04:28.540Z,5.95
2022-10-13T00:04:59.852Z,5.03
2022-10-13T00:05:31.189Z,3.25
2022-10-13T00:06:05.209Z,4.82
2022-10-13T00:06:36.623Z,8.38
2022-10-13T00:07:07.937Z,6.57
2022-10-13T00:07:39.257Z,4.55
2022-10-13T00:08:11.056Z,6.00
2022-10-13T00:08:42.632Z,7.40
2022-10-13T00:09:13.978Z,5.63
2022-10-13T00:09:45.292Z,7.43
2022-10-13T00:10:16.640Z,5.40
2022-10-13T00:10:49.208Z,6.60
2022-10-13T00:11:25.109Z,4.57
2022-10-13T00:11:57.354Z,6.20
2022-10-13T00:12:28.679Z,4.93
2022-10-13T00:12:59.991Z,8.38
2022-10-13T00:13:31.299Z,6.05
2022-10-13T00:14:04.360Z,6.35
2022-10-13T00:14:35.720Z,5.47
2022-10-13T00:15:07.999Z,6.50
2022-10-13T00:15:40.008Z,6.13
2022-10-13T00:16:12.214Z,4.05
2022-10-13T00:16:43.545Z,5.88
2022-10-13T00:17:14.889Z,5.95
2022-10-13T00:17:46.537Z,6.80
2022-10-13T00:18:17.902Z,6.68
2022-10-13T00:18:49.794Z,5.78
2022-10-13T00:19:21.109Z,6.75
2022-10-13T00:19:52.445Z,6.93
2022-10-13T00:20:23.765Z,5.75
2022-10-13T00:20:55.145Z,5.15
2022-10-13T00:21:27.291Z,6.75
2022-10-13T00:21:58.606Z,6.43
2022-10-13T00:22:29.992Z,5.95
2022-10-13T00:23:01.684Z,4.82
2022-10-13T00:23:33.359Z,5.25
2022-10-13T00:24:04.779Z,6.25
2022-10-13T00:24:36.134Z,5.67
2022-10-13T00:25:07.665Z,6.28
2022-10-13T00:25:46.671Z,6.30
2022-10-13T00:26:18.471Z,6.15
2022-10-13T00:26:50.799Z,6.05
2022-10-13T00:27:22.227Z,6.43
2022-10-13T00:27:53.569Z,7.10
2022-10-13T00:28:24.932Z,5.65
2022-10-13T00:28:56.374Z,7.50
2022-10-13T00:29:27.780Z,5.50
2022-10-13T00:29:59.187Z,6.93
2022-10-13T00:30:33.530Z,6.25
2022-10-13T00:31:14.443Z,6.63
2022-10-13T00:31:45.772Z,6.30
2022-10-13T00:32:17.443Z,6.85
2022-10-13T00:32:49.091Z,6.93
2022-10-13T00:33:20.409Z,5.40
2022-10-13T00:33:52.068Z,6.22
2022-10-13T00:34:23.439Z,5.13
2022-10-13T00:34:54.760Z,6.80
2022-10-13T00:35:26.226Z,6.45
2022-10-13T00:35:57.582Z,8.27
2022-10-13T00:36:29.325Z,6.30
2022-10-13T00:37:00.642Z,5.70
2022-10-13T00:37:32.028Z,3.97
2022-10-13T00:38:03.360Z,5.65
2022-10-13T00:38:34.681Z,7.30
2022-10-13T00:39:06.053Z,5.78
2022-10-13T00:39:37.380Z,7.28
2022-10-13T00:40:08.959Z,6.22
2022-10-13T00:40:51.057Z,6.13
2022-10-13T00:41:22.390Z,6.25
2022-10-13T00:41:53.727Z,5.22
2022-10-13T00:42:25.074Z,5.15
2022-10-13T00:42:56.414Z,5.88
2022-10-13T00:43:47.373Z,7.10
2022-10-13T00:44:37.480Z,5.63
2022-10-13T00:45:17.716Z,6.20
2022-10-13T00:45:49.703Z,8.18
2022-10-13T00:46:22.212Z,4.65
2022-10-13T00:46:53.550Z,6.32
2022-10-13T00:47:26.225Z,6.63
2022-10-13T00:48:01.190Z,7.63
2022-10-13T00:48:32.523Z,7.60
2022-10-13T00:49:08.666Z,5.68
2022-10-13T00:49:40.007Z,6.30
2022-10-13T00:50:12.609Z,6.60
2022-10-13T00:50:44.337Z,5.23
2022-10-13T00:51:17.139Z,5.53
2022-10-13T00:51:49.396Z,6.18
2022-10-13T00:52:21.602Z,6.97
2022-10-13T00:52:54.172Z,6.03
2022-10-13T00:53:28.395Z,6.10
2022-10-13T00:54:00.699Z,7.78
2022-10-13T00:54:32.085Z,7.05
2022-10-13T00:55:03.872Z,6.30
2022-10-13T00:55:36.526Z,6.60
2022-10-13T00:56:09.711Z,7.05
2022-10-13T00:56:41.191Z,6.85
2022-10-13T00:57:12.820Z,6.65
2022-10-13T00:57:45.435Z,6.47
2022-10-13T00:58:18.065Z,6.70
2022-10-13T00:58:49.737Z,6.78
2022-10-13T00:59:23.809Z,6.40
2022-10-13T00:59:55.447Z,7.88
2022-10-13T01:00:26.818Z,5.30
2022-10-13T01:00:58.903Z,5.20
2022-10-13T01:01:30.678Z,5.50
2022-10-13T01:02:02.186Z,4.68
2022-10-13T01:02:35.864Z,7.18
2022-10-13T01:03:07.195Z,6.47
2022-10-13T01:03:38.595Z,4.82
2022-10-13T01:04:10.376Z,5.97
2022-10-13T01:04:43.239Z,6.55
2022-10-13T01:05:14.964Z,6.75
2022-10-13T01:05:47.628Z,5.70
2022-10-13T01:06:23.397Z,6.22
2022-10-13T01:06:56.485Z,6.90
2022-10-13T01:07:27.866Z,6.65
2022-10-13T01:07:59.469Z,5.83
2022-10-13T01:08:31.085Z,5.70
2022-10-13T01:09:02.404Z,5.28
2022-10-13T01:09:33.729Z,6.85
2022-10-13T01:10:05.325Z,5.13
2022-10-13T01:10:51.696Z,4.95
2022-10-13T01:11:41.517Z,6.88
2022-10-13T01:12:19.160Z,6.15
2022-10-13T01:13:03.107Z,5.93
2022-10-13T01:13:39.149Z,8.05
2022-10-13T01:14:18.479Z,5.75
2022-10-13T01:15:10.061Z,7.18
2022-10-13T01:15:56.509Z,5.43
2022-10-13T01:16:27.807Z,6.85
2022-10-13T01:17:04.830Z,7.93
2022-10-13T01:17:45.126Z,7.32
2022-10-13T01:18:20.657Z,6.57
2022-10-13T01:18:56.745Z,5.70
2022-10-13T01:19:46.888Z,4.95
2022-10-13T01:20:36.648Z,7.40
2022-10-13T01:21:07.980Z,5.65
2022-10-13T01:21:51.911Z,6.05
2022-10-13T01:22:26.065Z,5.22
2022-10-13T01:23:03.588Z,9.65
2022-10-13T01:23:51.439Z,6.75
2022-10-13T01:24:42.971Z,4.35
2022-10-13T01:25:26.538Z,6.68
2022-10-13T01:25:57.870Z,7.82
2022-10-13T01:26:47.945Z,6.53
2022-10-13T01:27:25.222Z,8.27
2022-10-13T01:28:02.607Z,6.53
2022-10-13T01:28:40.216Z,6.55
2022-10-13T01:29:11.560Z,5.43
2022-10-13T01:29:57.836Z,6.63
2022-10-13T01:30:31.867Z,6.57
2022-10-13T01:31:11.171Z,5.78
2022-10-13T01:31:48.977Z,5.47
2022-10-13T01:32:46.936Z,5.60
2022-10-13T01:33:18.259Z,5.63
2022-10-13T01:33:57.183Z,5.60
2022-10-13T01:34:37.644Z,5.90
2022-10-13T01:35:16.372Z,6.07
2022-10-13T01:35:53.445Z,9.00
2022-10-13T01:36:46.118Z,6.45
2022-10-13T01:37:22.451Z,9.75
2022-10-13T01:37:58.349Z,7.10
2022-10-13T01:38:32.767Z,6.22
2022-10-13T01:39:30.512Z,6.90
2022-10-13T01:40:10.285Z,5.05
2022-10-13T01:40:49.639Z,5.65
2022-10-13T01:41:20.940Z,6.18
2022-10-13T01:41:55.007Z,7.45
2022-10-13T01:42:36.063Z,4.90
2022-10-13T01:43:10.619Z,6.20
2022-10-13T01:44:05.341Z,9.25
2022-10-13T01:44:38.492Z,7.30
2022-10-13T01:45:11.527Z,7.15
2022-10-13T01:45:48.867Z,5.80
2022-10-13T01:46:23.026Z,5.20
2022-10-13T01:46:54.564Z,6.70
2022-10-13T01:47:26.651Z,9.07
2022-10-13T01:47:59.574Z,7.03
2022-10-13T01:48:31.122Z,6.85
2022-10-13T01:49:04.562Z,7.20
2022-10-13T01:49:36.026Z,5.50
2022-10-13T01:50:07.686Z,6.57
2022-10-13T01:50:39.383Z,6.18
2022-10-13T01:51:13.535Z,6.70
2022-10-13T01:51:44.999Z,5.93
2022-10-13T01:52:17.942Z,4.85
2022-10-13T01:52:49.980Z,10.77
2022-10-13T01:53:21.551Z,5.78
2022-10-13T01:53:53.121Z,6.43
2022-10-13T01:54:24.451Z,5.80
2022-10-13T01:54:55.818Z,4.53
2022-10-13T01:55:27.185Z,5.57
2022-10-13T01:55:59.415Z,7.10
2022-10-13T01:56:30.868Z,7.63
2022-10-13T01:57:02.205Z,5.35
2022-10-13T01:57:35.079Z,6.25
2022-10-13T01:58:06.389Z,8.00
2022-10-13T01:58:37.847Z,6.47
2022-10-13T01:59:11.391Z,5.30
2022-10-13T01:59:42.718Z,6.18
2022-10-13T02:00:19.252Z,6.78
2022-10-13T02:01:00.124Z,7.60
2022-10-13T02:01:43.533Z,6.88
2022-10-13T02:02:19.115Z,5.72
2022-10-13T02:03:11.896Z,5.32
2022-10-13T02:03:52.383Z,6.55
2022-10-13T02:04:50.025Z,5.97
2022-10-13T02:05:24.283Z,6.32
2022-10-13T02:06:20.531Z,7.25
2022-10-13T02:06:54.078Z,6.73
2022-10-13T02:07:25.398Z,6.40
2022-10-13T02:07:59.806Z,6.47
2022-10-13T02:08:33.254Z,8.85
2022-10-13T02:09:04.717Z,5.43
2022-10-13T02:09:59.154Z,8.23
2022-10-13T02:10:34.255Z,5.47
2022-10-13T02:11:05.636Z,7.43
2022-10-13T02:11:38.941Z,5.43
2022-10-13T02:12:22.910Z,7.50
2022-10-13T02:13:00.006Z,8.48
2022-10-13T02:13:32.713Z,6.97
2022-10-13T02:14:11.809Z,6.97
2022-10-13T02:14:44.271Z,7.20
2022-10-13T02:15:17.947Z,9.25
2022-10-13T02:15:50.970Z,6.50
2022-10-13T02:16:22.753Z,8.88
2022-10-13T02:16:54.429Z,6.40
2022-10-13T02:17:27.061Z,5.95
2022-10-13T02:17:58.567Z,8.13
2022-10-13T02:18:31.714Z,7.80
2022-10-13T02:19:04.693Z,6.30
2022-10-13T02:19:37.711Z,7.13
2022-10-13T02:20:09.721Z,6.93
2022-10-13T02:20:42.082Z,7.25
2022-10-13T02:21:15.419Z,5.57
2022-10-13T02:21:47.496Z,7.03
2022-10-13T02:22:19.670Z,5.63
2022-10-13T02:22:55.760Z,6.85
2022-10-13T02:23:28.076Z,4.88
2022-10-13T02:23:59.437Z,5.38
2022-10-13T02:24:30.898Z,5.13
2022-10-13T02:25:02.268Z,7.20
2022-10-13T02:25:34.190Z,6.55
2022-10-13T02:26:05.697Z,6.35
2022-10-13T02:26:37.371Z,6.10
2022-10-13T02:27:09.043Z,7.28
2022-10-13T02:27:40.559Z,6.32
2022-10-13T02:28:13.276Z,8.13
2022-10-13T02:28:44.862Z,5.00
2022-10-13T02:29:16.643Z,6.78
2022-10-13T02:29:49.186Z,7.18
2022-10-13T02:30:22.488Z,7.35
2022-10-13T02:30:53.819Z,6.20
2022-10-13T02:31:25.217Z,7.00
2022-10-13T02:31:56.570Z,8.02
2022-10-13T02:32:27.910Z,6.78
2022-10-13T02:32:59.788Z,5.47
2022-10-13T02:33:31.125Z,6.95
2022-10-13T02:34:02.468Z,5.25
2022-10-13T02:34:33.800Z,7.10
2022-10-13T02:35:05.383Z,7.90
2022-10-13T02:35:36.753Z,7.13
2022-10-13T02:36:08.080Z,6.93
2022-10-13T02:36:39.493Z,7.40
2022-10-13T02:37:10.832Z,9.27
2022-10-13T02:37:42.268Z,7.47
2022-10-13T02:38:13.606Z,8.20
2022-10-13T02:38:44.924Z,6.75
2022-10-13T02:39:16.693Z,5.22
2022-10-13T02:39:48.019Z,4.95
2022-10-13T02:40:19.344Z,7.53
2022-10-13T02:40:50.732Z,8.98
2022-10-13T02:41:22.074Z,7.72
2022-10-13T02:41:53.554Z,8.27
2022-10-13T02:42:24.915Z,6.68
2022-10-13T02:42:56.282Z,6.43
2022-10-13T02:43:27.632Z,6.22
2022-10-13T02:43:59.333Z,7.95
2022-10-13T02:44:30.661Z,5.68
2022-10-13T02:45:01.983Z,6.30
2022-10-13T02:45:33.334Z,8.05
2022-10-13T02:46:04.767Z,6.10
2022-10-13T02:46:36.098Z,8.13
2022-10-13T02:47:07.515Z,6.05
2022-10-13T02:47:38.984Z,6.25
2022-10-13T02:48:10.318Z,5.60
2022-10-13T02:48:41.643Z,6.93
2022-10-13T02:49:13.035Z,5.60
2022-10-13T02:49:44.392Z,7.22
2022-10-13T02:50:15.782Z,6.25
2022-10-13T02:50:47.364Z,6.32
2022-10-13T02:51:18.717Z,6.78
2022-10-13T02:51:50.068Z,7.65
2022-10-13T02:52:21.799Z,6.18
2022-10-13T02:52:53.329Z,6.35
2022-10-13T02:53:24.768Z,7.68
2022-10-13T02:53:56.110Z,8.27
2022-10-13T02:54:27.467Z,5.78
2022-10-13T02:54:58.794Z,6.95
2022-10-13T02:55:30.125Z,7.25
2022-10-13T02:56:01.463Z,7.00
2022-10-13T02:56:32.784Z,6.00
2022-10-13T02:57:04.126Z,6.65
2022-10-13T02:57:35.495Z,8.02
2022-10-13T02:58:06.862Z,8.68
2022-10-13T02:58:38.196Z,8.43
2022-10-13T02:59:09.511Z,7.82
2022-10-13T02:59:40.837Z,5.00
2022-10-13T03:00:12.607Z,6.03
2022-10-13T03:00:43.989Z,7.75
2022-10-13T03:01:15.560Z,5.72
2022-10-13T03:01:46.914Z,5.70
2022-10-13T03:02:18.780Z,6.93
2022-10-13T03:02:50.462Z,6.53
2022-10-13T03:03:21.788Z,5.63
2022-10-13T03:03:53.144Z,7.78
2022-10-13T03:04:24.473Z,7.05
2022-10-13T03:04:55.827Z,9.18
2022-10-13T03:05:27.181Z,8.73
2022-10-13T03:05:58.515Z,6.90
2022-10-13T03:06:29.858Z,5.15
2022-10-13T03:07:01.423Z,7.82
2022-10-13T03:07:32.765Z,6.90
2022-10-13T03:08:04.209Z,5.55
2022-10-13T03:08:35.709Z,6.45
2022-10-13T03:09:07.132Z,8.88
2022-10-13T03:09:38.476Z,5.60
2022-10-13T03:10:09.882Z,6.05
2022-10-13T03:10:41.277Z,7.45
2022-10-13T03:11:12.613Z,4.95
2022-10-13T03:11:44.074Z,7.50
2022-10-13T03:12:15.474Z,7.68
2022-10-13T03:12:46.837Z,5.40
2022-10-13T03:13:18.523Z,6.70
2022-10-13T03:13:50.010Z,6.45
2022-10-13T03:14:21.353Z,7.43
2022-10-13T03:14:52.702Z,5.65
2022-10-13T03:15:24.317Z,9.80
2022-10-13T03:15:55.679Z,5.15
2022-10-13T03:16:27.131Z,9.95
2022-10-13T03:16:58.524Z,6.93
2022-10-13T03:17:29.941Z,6.13
2022-10-13T03:18:01.269Z,7.70
2022-10-13T03:18:32.705Z,9.50
2022-10-13T03:19:04.152Z,6.13
2022-10-13T03:19:35.461Z,6.40
2022-10-13T03:20:07.225Z,7.27
2022-10-13T03:20:38.548Z,6.32
2022-10-13T03:21:10.250Z,6.65
2022-10-13T03:21:41.813Z,6.53
2022-10-13T03:22:13.148Z,7.63
2022-10-13T03:22:48.817Z,7.28
2022-10-13T03:23:21.180Z,7.53
2022-10-13T03:23:52.518Z,6.20
2022-10-13T03:24:23.861Z,7.22
2022-10-13T03:24:55.178Z,5.82
2022-10-13T03:25:26.493Z,6.90
2022-10-13T03:25:57.836Z,6.40
2022-10-13T03:26:29.149Z,6.22
2022-10-13T03:27:00.499Z,7.75
2022-10-13T03:27:31.829Z,6.20
2022-10-13T03:28:03.160Z,7.30
2022-10-13T03:28:34.567Z,6.50
2022-10-13T03:29:05.993Z,8.80
2022-10-13T03:29:37.469Z,7.30
2022-10-13T03:30:09.212Z,6.65
2022-10-13T03:30:40.555Z,6.10
2022-10-13T03:31:12.021Z,7.45
2022-10-13T03:31:43.378Z,7.05
2022-10-13T03:32:14.730Z,9.00
2022-10-13T03:32:46.057Z,9.00
2022-10-13T03:33:17.400Z,9.63
2022-10-13T03:33:48.744Z,8.10
2022-10-13T03:34:20.083Z,9.60
2022-10-13T03:34:51.665Z,8.48
2022-10-13T03:35:22.983Z,9.52
2022-10-13T03:35:54.307Z,6.60
2022-10-13T03:36:25.622Z,9.07
2022-10-13T03:36:56.946Z,7.85
2022-10-13T03:37:29.149Z,9.93
2022-10-13T03:38:00.478Z,10.73
2022-10-13T03:38:32.943Z,10.88
2022-10-13T03:39:04.282Z,10.00
2022-10-13T03:39:35.655Z,10.65
2022-10-13T03:40:07.402Z,8.43
2022-10-13T03:40:38.757Z,8.32
2022-10-13T03:41:11.463Z,9.88
2022-10-13T03:41:42.828Z,11.68
2022-10-13T03:42:14.163Z,10.82
2022-10-13T03:42:45.497Z,8.07
2022-10-13T03:43:16.826Z,9.13
2022-10-13T03:43:48.179Z,9.45
2022-10-13T03:44:19.571Z,8.57
2022-10-13T03:44:55.952Z,8.52
2022-10-13T03:45:27.795Z,11.65
2022-10-13T03:46:00.217Z,15.25
2022-10-13T03:46:31.692Z,13.45
2022-10-13T03:47:03.042Z,14.73
2022-10-13T03:47:37.299Z,15.70
2022-10-13T03:48:08.663Z,20.58
2022-10-13T03:48:40.052Z,13.40
2022-10-13T03:49:11.817Z,19.63
2022-10-13T03:49:43.170Z,11.30
2022-10-13T03:50:14.547Z,12.00
2022-10-13T03:50:45.885Z,12.20
2022-10-13T03:51:18.645Z,12.00
2022-10-13T03:51:49.938Z,7.72
2022-10-13T03:52:22.045Z,7.70
2022-10-13T03:52:53.649Z,6.85
2022-10-13T03:53:25.263Z,8.37
2022-10-13T03:53:56.622Z,7.72
2022-10-13T03:54:27.945Z,5.82
2022-10-13T03:54:59.307Z,9.15
2022-10-13T03:55:30.634Z,7.47
2022-10-13T03:56:02.118Z,8.25
2022-10-13T03:56:33.488Z,5.10
2022-10-13T03:57:04.805Z,7.80
2022-10-13T03:57:36.120Z,7.53
2022-10-13T03:58:07.444Z,10.10
2022-10-13T03:58:38.779Z,6.63
2022-10-13T03:59:12.041Z,5.32
2022-10-13T03:59:43.407Z,5.60
2022-10-13T04:00:15.075Z,6.95
2022-10-13T04:00:46.499Z,7.78
2022-10-13T04:01:17.859Z,6.70
2022-10-13T04:01:49.371Z,6.40
2022-10-13T04:02:21.004Z,9.32
2022-10-13T04:02:52.569Z,7.93
2022-10-13T04:03:23.971Z,8.60
2022-10-13T04:03:55.509Z,10.20
2022-10-13T04:04:26.838Z,7.50
2022-10-13T04:04:58.172Z,9.38
2022-10-13T04:05:29.777Z,9.10
2022-10-13T04:06:01.748Z,7.47
2022-10-13T04:06:33.144Z,7.40
2022-10-13T04:07:04.700Z,6.93
2022-10-13T04:07:36.025Z,8.27
2022-10-13T04:08:07.511Z,9.40
2022-10-13T04:08:38.857Z,7.07
2022-10-13T04:09:10.264Z,6.68
2022-10-13T04:09:41.628Z,9.52
2022-10-13T04:10:12.987Z,8.23
2022-10-13T04:10:44.589Z,6.90
2022-10-13T04:11:16.576Z,8.35
2022-10-13T04:11:49.688Z,7.45
2022-10-13T04:12:21.416Z,8.07
2022-10-13T04:12:52.845Z,5.75
2022-10-13T04:13:24.245Z,8.65
2022-10-13T04:13:56.312Z,10.40
2022-10-13T04:14:27.657Z,6.82
2022-10-13T04:14:59.006Z,6.63
2022-10-13T04:15:30.355Z,9.63
2022-10-13T04:16:05.996Z,6.93
2022-10-13T04:16:37.390Z,6.85
2022-10-13T04:17:08.701Z,11.32
2022-10-13T04:17:40.117Z,5.82
2022-10-13T04:18:11.605Z,7.60
2022-10-13T04:18:44.864Z,6.85
2022-10-13T04:19:16.462Z,5.90
2022-10-13T04:19:47.802Z,6.57
2022-10-13T04:20:19.334Z,6.85
2022-10-13T04:20:50.686Z,10.75
2022-10-13T04:21:22.470Z,7.70
2022-10-13T04:21:53.805Z,8.48
2022-10-13T04:22:25.244Z,8.50
2022-10-13T04:22:56.586Z,8.77
2022-10-13T04:23:27.941Z,9.27
2022-10-13T04:23:59.712Z,7.13
2022-10-13T04:24:31.117Z,10.63
2022-10-13T04:25:02.511Z,9.43
2022-10-13T04:25:37.381Z,5.72
2022-10-13T04:26:14.485Z,8.88
2022-10-13T04:26:46.012Z,6.93
2022-10-13T04:27:17.392Z,7.97
2022-10-13T04:27:48.736Z,12.68
2022-10-13T04:28:20.116Z,9.13
2022-10-13T04:28:52.498Z,9.63
2022-10-13T04:29:24.071Z,7.68
2022-10-13T04:29:55.401Z,8.57
2022-10-13T04:30:26.711Z,6.30
2022-10-13T04:30:58.479Z,7.50
2022-10-13T04:31:30.434Z,8.57
2022-10-13T04:32:01.754Z,9.35
2022-10-13T04:32:33.202Z,5.97
2022-10-13T04:33:05.007Z,6.13
2022-10-13T04:33:36.337Z,7.78
2022-10-13T04:34:07.676Z,9.68
2022-10-13T04:34:39.028Z,5.22
2022-10-13T04:35:10.360Z,7.75
2022-10-13T04:35:41.793Z,6.60
2022-10-13T04:36:14.043Z,8.65
2022-10-13T04:36:45.368Z,9.07
2022-10-13T04:37:16.714Z,10.68
2022-10-13T04:37:48.067Z,12.27
2022-10-13T04:38:19.405Z,8.27
2022-10-13T04:38:51.052Z,7.75
2022-10-13T04:39:22.379Z,9.37
2022-10-13T04:39:53.707Z,9.25
2022-10-13T04:40:25.688Z,8.15
2022-10-13T04:40:57.035Z,7.40
2022-10-13T04:41:28.365Z,6.32
2022-10-13T04:41:59.720Z,7.20
2022-10-13T04:42:31.057Z,7.00
2022-10-13T04:43:02.395Z,6.35
2022-10-13T04:43:33.841Z,7.43
2022-10-13T04:44:05.202Z,8.20
2022-10-13T04:44:36.516Z,9.80
2022-10-13T04:45:08.206Z,12.63
2022-10-13T04:45:39.535Z,6.63
2022-10-13T04:46:13.347Z,9.18
2022-10-13T04:46:44.691Z,6.70
2022-10-13T04:47:16.258Z,9.00
2022-10-13T04:47:47.597Z,7.28
2022-10-13T04:48:18.978Z,8.32
2022-10-13T04:48:50.326Z,8.32
2022-10-13T04:49:21.676Z,9.73
2022-10-13T04:49:53.011Z,7.72
2022-10-13T04:50:24.327Z,9.85
2022-10-13T04:50:59.477Z,6.90
2022-10-13T04:51:30.798Z,8.05
2022-10-13T04:52:02.128Z,8.55
2022-10-13T04:52:36.603Z,10.95
2022-10-13T04:53:07.917Z,7.47
2022-10-13T04:53:39.329Z,12.05
2022-10-13T04:54:10.777Z,6.13
2022-10-13T04:54:42.970Z,9.60
2022-10-13T04:55:14.300Z,8.30
2022-10-13T04:55:45.614Z,7.38
2022-10-13T04:56:17.581Z,8.82
2022-10-13T04:56:48.914Z,8.52
2022-10-13T04:57:20.228Z,10.20
2022-10-13T04:57:51.593Z,8.68
2022-10-13T04:58:23.118Z,8.65
2022-10-13T04:58:54.557Z,8.27
2022-10-13T04:59:26.051Z,7.30
2022-10-13T04:59:57.367Z,9.27
2022-10-13T05:00:28.741Z,9.05
2022-10-13T05:01:00.496Z,8.80
2022-10-13T05:01:32.756Z,9.82
2022-10-13T05:02:04.102Z,8.63
2022-10-13T05:02:35.898Z,10.07
2022-10-13T05:03:07.259Z,11.18
2022-10-13T05:03:38.598Z,10.25
2022-10-13T05:04:10.554Z,11.18
2022-10-13T05:04:41.906Z,9.77
2022-10-13T05:05:13.267Z,9.10
2022-10-13T05:05:44.626Z,7.85
2022-10-13T05:06:23.403Z,11.80
2022-10-13T05:07:16.493Z,6.43
2022-10-13T05:07:46.679Z,11.85
2022-10-13T05:08:18.200Z,6.30
2022-10-13T05:08:49.759Z,9.93
2022-10-13T05:09:21.064Z,7.15
2022-10-13T05:09:52.479Z,8.32
2022-10-13T05:10:23.820Z,7.28
2022-10-13T05:10:59.498Z,9.77
2022-10-13T05:11:31.628Z,7.80
2022-10-13T05:12:03.190Z,7.97
2022-10-13T05:12:34.722Z,6.40
2022-10-13T05:13:06.076Z,7.35
2022-10-13T05:13:37.889Z,7.70
2022-10-13T05:14:09.263Z,8.50
2022-10-13T05:14:40.772Z,8.57
2022-10-13T05:15:12.106Z,8.30
2022-10-13T05:15:43.571Z,9.77
2022-10-13T05:16:16.219Z,7.97
2022-10-13T05:16:47.705Z,7.88
2022-10-13T05:17:19.012Z,7.93
2022-10-13T05:17:50.451Z,5.72
2022-10-13T05:18:21.949Z,8.93
2022-10-13T05:18:53.971Z,8.23
2022-10-13T05:19:25.360Z,8.80
2022-10-13T05:19:56.698Z,6.70
2022-10-13T05:20:28.028Z,7.70
2022-10-13T05:21:05.870Z,9.25
2022-10-13T05:21:37.248Z,11.82
2022-10-13T05:22:08.592Z,12.38
2022-10-13T05:22:40.150Z,11.05
2022-10-13T05:23:11.797Z,8.68
2022-10-13T05:23:43.443Z,7.82
2022-10-13T05:24:14.796Z,7.97
2022-10-13T05:24:46.123Z,7.70
2022-10-13T05:25:17.545Z,9.30
2022-10-13T05:25:48.919Z,10.63
2022-10-13T05:26:20.333Z,9.93
2022-10-13T05:26:51.692Z,11.57
2022-10-13T05:27:23.006Z,9.70
2022-10-13T05:27:54.328Z,9.35
2022-10-13T05:28:25.672Z,10.88
2022-10-13T05:28:57.500Z,9.48
2022-10-13T05:29:28.870Z,9.25
2022-10-13T05:30:00.219Z,10.30
2022-10-13T05:30:31.641Z,10.90
2022-10-13T05:31:10.131Z,10.63
2022-10-13T05:31:41.454Z,11.90
2022-10-13T05:32:12.801Z,13.95
2022-10-13T05:32:44.260Z,12.13
2022-10-13T05:33:15.584Z,9.85
2022-10-13T05:33:47.203Z,9.90
2022-10-13T05:34:18.530Z,9.50
2022-10-13T05:34:49.884Z,9.65
2022-10-13T05:35:21.214Z,10.60
2022-10-13T05:35:52.541Z,10.45
2022-10-13T05:36:25.880Z,13.05
2022-10-13T05:36:57.322Z,12.52
2022-10-13T05:37:28.684Z,10.55
2022-10-13T05:38:00.028Z,10.85
2022-10-13T05:38:31.500Z,12.35
2022-10-13T05:39:04.492Z,8.98
2022-10-13T05:39:35.818Z,10.82
2022-10-13T05:40:07.502Z,12.63
2022-10-13T05:40:38.826Z,11.52
2022-10-13T05:41:11.107Z,11.68
2022-10-13T05:41:42.431Z,15.60
2022-10-13T05:42:13.996Z,10.82
2022-10-13T05:42:45.319Z,11.30
2022-10-13T05:43:16.643Z,8.18
2022-10-13T05:43:48.001Z,11.63
2022-10-13T05:44:19.596Z,9.77
2022-10-13T05:44:51.061Z,8.55
2022-10-13T05:45:23.322Z,9.30
2022-10-13T05:45:54.654Z,9.25
2022-10-13T05:46:26.137Z,11.73
2022-10-13T05:46:57.454Z,11.50
2022-10-13T05:47:28.778Z,9.15
2022-10-13T05:48:00.085Z,11.87
2022-10-13T05:48:31.953Z,10.20
2022-10-13T05:49:03.509Z,9.63
2022-10-13T05:49:34.956Z,12.50
2022-10-13T05:50:06.628Z,9.77
2022-10-13T05:50:38.175Z,11.93
2022-10-13T05:51:14.063Z,10.00
2022-10-13T05:51:47.369Z,11.35
2022-10-13T05:52:19.059Z,11.73
2022-10-13T05:52:51.148Z,10.85
2022-10-13T05:53:23.657Z,11.88
2022-10-13T05:54:00.016Z,9.48
2022-10-13T05:54:34.962Z,10.40
2022-10-13T05:55:08.533Z,9.98
2022-10-13T05:55:39.909Z,10.40
2022-10-13T05:56:14.010Z,11.23
2022-10-13T05:56:50.238Z,11.35
2022-10-13T05:57:27.660Z,10.10
2022-10-13T05:57:58.996Z,10.57
2022-10-13T05:58:31.505Z,13.60
2022-10-13T05:59:04.741Z,11.60
2022-10-13T05:59:39.612Z,12.85
2022-10-13T06:00:15.253Z,10.93
2022-10-13T06:00:46.801Z,9.70
2022-10-13T06:01:20.115Z,10.35
2022-10-13T06:01:52.021Z,14.18
2022-10-13T06:02:24.915Z,10.60
2022-10-13T06:03:03.913Z,10.10
2022-10-13T06:03:35.615Z,9.38
2022-10-13T06:04:09.613Z,8.95
2022-10-13T06:04:48.892Z,9.63
2022-10-13T06:05:21.610Z,10.90
2022-10-13T06:05:53.314Z,12.50
2022-10-13T06:06:29.036Z,11.30
2022-10-13T06:07:02.552Z,11.98
2022-10-13T06:07:34.185Z,13.05
2022-10-13T06:08:05.544Z,11.47
2022-10-13T06:08:37.369Z,17.15
2022-10-13T06:09:08.745Z,12.45
2022-10-13T06:09:40.764Z,10.98
2022-10-13T06:10:12.255Z,9.68
2022-10-13T06:10:43.728Z,9.77
2022-10-13T06:11:15.072Z,10.63
2022-10-13T06:11:46.401Z,11.32
2022-10-13T06:12:17.937Z,10.45
2022-10-13T06:12:49.404Z,12.82
2022-10-13T06:13:20.747Z,12.05
2022-10-13T06:13:52.056Z,11.40
2022-10-13T06:14:23.409Z,11.85
2022-10-13T06:14:54.743Z,10.65
2022-10-13T06:15:28.295Z,11.25
2022-10-13T06:15:59.739Z,11.48
2022-10-13T06:16:31.115Z,13.05
2022-10-13T06:17:02.423Z,10.60
2022-10-13T06:17:35.860Z,13.98
2022-10-13T06:18:07.709Z,11.18
2022-10-13T06:18:39.028Z,18.33
2022-10-13T06:19:10.355Z,18.63
2022-10-13T06:19:41.699Z,17.17
2022-10-13T06:20:13.028Z,15.15
2022-10-13T06:20:44.375Z,14.65
2022-10-13T06:21:15.727Z,18.42
2022-10-13T06:21:47.094Z,16.85
2022-10-13T06:22:18.822Z,19.63
2022-10-13T06:22:50.429Z,17.55
2022-10-13T06:23:21.739Z,16.25
2022-10-13T06:23:53.070Z,17.23
2022-10-13T06:24:24.398Z,18.42
2022-10-13T06:24:55.719Z,16.80
2022-10-13T06:25:27.109Z,19.60
2022-10-13T06:25:58.441Z,16.70
2022-10-13T06:26:29.776Z,19.13
2022-10-13T06:27:01.135Z,18.63
2022-10-13T06:27:32.520Z,18.98
2022-10-13T06:28:03.927Z,22.03
2022-10-13T06:28:35.366Z,19.63
2022-10-13T06:29:06.782Z,16.58
2022-10-13T06:29:38.217Z,22.40
2022-10-13T06:30:09.741Z,18.33
2022-10-13T06:30:41.091Z,19.73
2022-10-13T06:31:12.425Z,22.92
2022-10-13T06:31:43.758Z,19.20
2022-10-13T06:32:15.128Z,18.10
2022-10-13T06:32:46.461Z,21.08
2022-10-13T06:33:17.760Z,19.35
2022-10-13T06:33:49.079Z,19.95
2022-10-13T06:34:20.425Z,21.02
2022-10-13T06:34:51.797Z,22.67
2022-10-13T06:35:23.409Z,17.13
2022-10-13T06:35:54.730Z,22.17
2022-10-13T06:36:26.251Z,21.08
2022-10-13T06:36:57.616Z,17.95
2022-10-13T06:37:28.961Z,19.77
2022-10-13T06:38:00.295Z,21.67
2022-10-13T06:38:31.838Z,21.15
2022-10-13T06:39:03.223Z,21.15
2022-10-13T06:39:35.244Z,21.30
2022-10-13T06:40:06.969Z,20.85
2022-10-13T06:40:38.452Z,19.55
2022-10-13T06:41:09.793Z,22.70
2022-10-13T06:41:41.121Z,19.63
2022-10-13T06:42:12.527Z,20.00
2022-10-13T06:42:48.999Z,20.42
2022-10-13T06:43:20.401Z,20.50
2022-10-13T06:43:51.724Z,19.23
2022-10-13T06:44:23.080Z,18.83
2022-10-13T06:44:54.445Z,19.45
2022-10-13T06:45:25.771Z,18.10
2022-10-13T06:46:00.820Z,18.90
2022-10-13T06:46:32.227Z,19.33
2022-10-13T06:47:04.339Z,20.10
2022-10-13T06:47:35.706Z,19.27
2022-10-13T06:48:07.318Z,20.63
2022-10-13T06:48:38.675Z,19.05
2022-10-13T06:49:10.029Z,22.38
2022-10-13T06:49:41.571Z,20.00
2022-10-13T06:50:12.949Z,20.45
2022-10-13T06:50:44.346Z,22.50
2022-10-13T06:51:15.684Z,19.90
2022-10-13T06:51:47.009Z,20.27
2022-10-13T06:52:18.659Z,20.23
2022-10-13T06:52:50.392Z,20.02
2022-10-13T06:53:21.724Z,17.40
2022-10-13T06:53:53.086Z,21.80
2022-10-13T06:54:24.477Z,18.35
2022-10-13T06:54:55.807Z,16.75
2022-10-13T06:55:27.368Z,16.73
2022-10-13T06:55:59.330Z,18.92
2022-10-13T06:56:30.665Z,19.00
2022-10-13T06:57:02.009Z,20.48
2022-10-13T06:57:33.491Z,20.92
2022-10-13T06:58:04.836Z,22.10
2022-10-13T06:58:36.449Z,23.20
2022-10-13T06:59:07.904Z,17.50
2022-10-13T06:59:39.357Z,22.60
2022-10-13T07:00:10.932Z,19.60
2022-10-13T07:00:42.420Z,19.45
2022-10-13T07:01:13.927Z,19.55
2022-10-13T07:01:45.299Z,20.10
2022-10-13T07:02:16.703Z,17.83
2022-10-13T07:02:51.804Z,21.85
2022-10-13T07:03:23.734Z,17.42
2022-10-13T07:03:55.159Z,20.98
2022-10-13T07:04:26.550Z,18.60
2022-10-13T07:04:57.873Z,15.77
2022-10-13T07:05:29.350Z,19.67
2022-10-13T07:06:01.964Z,18.73
2022-10-13T07:06:33.534Z,21.30
2022-10-13T07:07:04.869Z,21.60
2022-10-13T07:07:36.273Z,20.88
2022-10-13T07:08:07.596Z,21.02
2022-10-13T07:08:38.976Z,19.33
2022-10-13T07:09:10.304Z,17.60
2022-10-13T07:09:41.848Z,14.95
2022-10-13T07:10:13.436Z,17.05
2022-10-13T07:10:44.790Z,14.57
2022-10-13T07:11:16.733Z,16.17
2022-10-13T07:11:48.201Z,13.60